Time;durP1;ratioP1;P1;durP2;ratioP2;P2;SDS_P1;SDS_P2;PMS_P1;PMS_P2;Temp;Humidity;BMP_temperature;BMP_pressure;BME280_temperature;BME280_humidity;BME280_pressure;Samples;Min_cycle;Max_cycle;Signal;HPM_P1;HPM_P2
2022/01/28 00:01:13;;;;;;;65.35;23.73;;;;;;;28.33;63.10;101029.84;5075073;27;69780;-36
2022/01/28 00:03:44;;;;;;;73.53;26.70;;;;;;;28.37;64.74;101042.72;5076617;27;66955;-35
2022/01/28 00:06:15;;;;;;;56.03;24.50;;;;;;;28.36;64.67;101043.78;5076278;27;70162;-37
2022/01/28 00:08:46;;;;;;;54.42;22.60;;;;;;;28.34;65.67;101048.53;5073342;27;65538;-36
2022/01/28 00:11:16;;;;;;;57.42;22.45;;;;;;;28.33;66.31;101057.63;5074754;27;70317;-36
2022/01/28 00:13:53;;;;;;;51.63;23.13;;;;;;;28.32;67.07;101055.97;5077457;27;66539;-36
2022/01/28 00:38:53;;;;;;;39.35;17.73;;;;;;;28.68;67.27;101096.28;5076162;27;69029;-36
2022/01/28 00:41:23;;;;;;;33.70;16.90;;;;;;;28.72;67.58;101104.78;5077577;27;66221;-35
2022/01/28 00:43:54;;;;;;;35.58;17.35;;;;;;;28.76;67.70;101106.06;5077343;27;69854;-35
2022/01/28 00:46:24;;;;;;;31.17;18.05;;;;;;;28.79;67.39;101112.94;5066429;27;66553;-35
2022/01/28 00:48:56;;;;;;;26.98;15.93;;;;;;;28.79;67.06;101116.47;5077531;27;70575;-36
2022/01/28 00:51:32;;;;;;;28.85;16.05;;;;;;;28.88;67.13;101126.06;5075012;27;65574;-37
2022/01/28 00:54:03;;;;;;;40.65;18.48;;;;;;;28.90;67.43;101118.59;5078305;27;70025;-37
2022/01/28 00:56:33;;;;;;;35.17;17.58;;;;;;;28.93;67.23;101120.06;5083988;27;66003;-36
2022/01/28 00:59:04;;;;;;;34.17;17.25;;;;;;;28.99;67.18;101126.53;5061327;27;69206;-36
2022/01/28 01:01:35;;;;;;;26.70;16.48;;;;;;;29.02;67.66;101120.72;5089988;27;65824;-36
2022/01/28 01:04:06;;;;;;;35.75;17.13;;;;;;;29.08;67.16;101128.03;5089109;27;68830;-36
2022/01/28 01:06:36;;;;;;;30.08;16.63;;;;;;;29.10;66.95;101142.19;5079978;27;67021;-36
2022/01/28 01:09:07;;;;;;;27.65;16.13;;;;;;;29.14;67.13;101143.44;5080712;27;70837;-36
2022/01/28 01:11:40;;;;;;;28.15;16.65;;;;;;;29.14;67.32;101140.72;5081267;27;65585;-35
2022/01/28 01:14:11;;;;;;;32.75;17.95;;;;;;;29.17;67.73;101151.16;5087720;27;70224;-36
2022/01/28 01:19:36;;;;;;;27.83;15.80;;;;;;;29.13;67.60;101149.88;5098727;27;70051;-36
2022/01/28 01:22:08;;;;;;;22.35;14.68;;;;;;;29.11;67.77;101141.13;5096960;27;65511;-36
2022/01/28 01:24:48;;;;;;;29.40;16.17;;;;;;;29.23;67.15;101155.75;5088319;27;69181;-36
2022/01/28 01:27:20;;;;;;;32.40;17.45;;;;;;;29.31;67.37;101169.06;5083297;27;66173;-36
2022/01/28 01:29:50;;;;;;;36.00;16.63;;;;;;;29.30;67.35;101170.09;5097462;27;70292;-36
2022/01/28 01:32:21;;;;;;;33.70;16.83;;;;;;;29.34;67.12;101167.84;5091596;27;66391;-35
2022/01/28 01:34:51;;;;;;;25.73;15.82;;;;;;;29.36;67.45;101174.72;5082574;27;69803;-36
2022/01/28 01:37:21;;;;;;;31.75;17.23;;;;;;;29.40;67.37;101178.66;5091464;27;65845;-36
2022/01/28 01:39:53;;;;;;;30.10;15.60;;;;;;;29.42;67.45;101180.31;5090030;27;69875;-36
2022/01/28 01:42:34;;;;;;;21.65;15.60;;;;;;;29.42;66.76;101183.00;5092059;27;66491;-36
2022/01/28 01:53:33;;;;;;;26.10;14.85;;;;;;;29.49;66.95;101187.41;5086777;27;65670;-36
2022/01/28 01:56:04;;;;;;;21.75;14.32;;;;;;;29.54;66.72;101192.22;5085461;27;69340;-37
2022/01/28 01:58:35;;;;;;;23.38;14.63;;;;;;;29.54;66.82;101189.50;5098425;27;66040;-36
2022/01/28 02:01:05;;;;;;;28.95;15.82;;;;;;;29.57;66.43;101189.09;5093173;27;70021;-35
2022/01/28 02:03:35;;;;;;;21.77;14.52;;;;;;;29.57;66.38;101195.34;5081740;27;65458;-36
2022/01/28 02:06:06;;;;;;;17.45;13.23;;;;;;;29.60;66.53;101196.78;5079883;27;69305;-36
2022/01/28 02:08:36;;;;;;;22.13;14.57;;;;;;;29.62;66.83;101197.44;5079954;27;65455;-37
2022/01/28 02:11:06;;;;;;;20.63;14.00;;;;;;;29.65;66.77;101196.22;5077902;27;70138;-36
2022/01/28 02:13:40;;;;;;;17.83;13.77;;;;;;;29.51;66.51;101160.19;5071224;27;65363;-36
2022/01/28 02:16:10;;;;;;;24.27;15.20;;;;;;;29.64;66.46;101187.25;5075074;27;69186;-36
2022/01/28 02:18:40;;;;;;;15.52;13.57;;;;;;;29.68;66.55;101185.00;5075937;27;66325;-36
2022/01/28 02:21:14;;;;;;;34.10;16.17;;;;;;;29.72;66.16;101189.78;5067290;28;70149;-36
2022/01/28 02:23:49;;;;;;;23.17;15.27;;;;;;;29.71;66.07;101185.41;5056610;28;65972;-35
2022/01/28 02:26:19;;;;;;;19.08;14.20;;;;;;;29.71;65.82;101180.00;5068544;27;70503;-36
2022/01/28 02:28:54;;;;;;;27.58;16.58;;;;;;;29.74;66.04;101186.88;5079050;27;66316;-36
2022/01/28 02:31:27;;;;;;;24.10;15.77;;;;;;;29.77;66.13;101194.56;5091031;27;70872;-36
2022/01/28 02:33:59;;;;;;;24.95;15.20;;;;;;;29.75;66.28;101181.25;5078603;27;65082;-36
2022/01/28 02:36:29;;;;;;;24.20;14.55;;;;;;;29.77;65.98;101194.56;5078756;27;70119;-36
2022/01/28 02:39:01;;;;;;;17.65;14.15;;;;;;;29.77;66.39;101184.59;5079359;27;65629;-35
2022/01/28 02:41:36;;;;;;;23.35;14.57;;;;;;;29.81;66.41;101191.25;5060319;28;69631;-36
2022/01/28 02:46:57;;;;;;;17.30;14.65;;;;;;;29.85;65.70;101186.28;5079912;27;70387;-35
2022/01/28 02:49:34;;;;;;;23.52;16.20;;;;;;;29.88;66.04;101185.03;5077916;27;66134;-35
2022/01/28 02:52:05;;;;;;;19.35;15.00;;;;;;;29.91;65.73;101184.59;5072266;27;70417;-36
2022/01/28 02:54:45;;;;;;;16.08;13.90;;;;;;;29.91;65.50;101179.19;5089649;27;65803;-36
2022/01/28 02:57:21;;;;;;;16.85;14.90;;;;;;;29.93;66.04;101182.53;5073618;27;70126;-36
2022/01/28 02:59:51;;;;;;;17.83;14.73;;;;;;;29.93;65.38;101179.84;5068278;27;66264;-37
2022/01/28 03:02:21;;;;;;;18.63;15.20;;;;;;;29.96;65.78;101182.13;5075857;27;70105;-35
2022/01/28 03:07:41;;;;;;;15.80;14.20;;;;;;;29.96;65.37;101172.13;5075267;27;70059;-35
2022/01/28 03:13:29;;;;;;;22.17;15.88;;;;;;;30.07;65.49;101173.38;5076927;27;70280;-35
2022/01/28 03:15:40;;;;;;;20.00;15.85;;;;;;;30.08;65.37;101166.94;5085941;27;66208;-35
2022/01/28 03:18:18;;;;;;;18.35;15.20;;;;;;;30.10;65.72;101155.91;5090596;27;70126;-35
2022/01/28 03:23:22;;;;;;;17.88;15.25;;;;;;;30.15;65.22;101146.13;5069550;27;70303;-36
2022/01/28 03:25:53;;;;;;;18.77;15.63;;;;;;;30.20;65.16;101148.19;5076144;27;66561;-35
2022/01/28 03:28:23;;;;;;;22.13;15.02;;;;;;;30.20;65.63;101150.88;5086587;27;69333;-36
2022/01/28 03:30:54;;;;;;;103.25;18.20;;;;;;;30.21;65.49;101134.47;5077922;27;66244;-36
2022/01/28 03:33:24;;;;;;;70.50;17.67;;;;;;;30.26;65.71;101139.28;5075303;27;70662;-37
2022/01/28 03:35:55;;;;;;;106.05;20.95;;;;;;;30.30;65.78;101128.88;5077948;27;66251;-38
2022/01/28 03:38:25;;;;;;;79.15;28.98;;;;;;;30.32;63.85;101132.19;5073081;27;70468;-37
2022/01/28 03:40:56;;;;;;;91.40;26.75;;;;;;;30.31;64.31;101122.41;5076584;27;66153;-37
2022/01/28 03:43:27;;;;;;;65.95;24.92;;;;;;;30.37;64.80;101129.66;5058092;27;70374;-37
2022/01/28 03:45:57;;;;;;;56.33;21.40;;;;;;;30.38;64.32;101125.94;5087081;27;66507;-37
2022/01/28 03:48:28;;;;;;;51.33;22.83;;;;;;;30.37;64.49;101125.09;5082109;27;70065;-37
2022/01/28 03:50:58;;;;;;;44.67;23.92;;;;;;;30.41;64.17;101115.50;5087897;27;66223;-36
2022/01/28 03:53:29;;;;;;;49.22;22.77;;;;;;;30.44;64.39;101116.97;5092498;27;70141;-38
2022/01/28 03:55:59;;;;;;;58.15;23.58;;;;;;;30.44;64.54;101108.84;5088392;27;66248;-37
2022/01/28 03:58:29;;;;;;;48.50;22.80;;;;;;;30.45;64.56;101105.09;5090867;27;70136;-37
2022/01/28 04:01:00;;;;;;;27.65;20.63;;;;;;;30.48;64.21;101094.69;5089717;27;65769;-37
2022/01/28 04:11:34;;;;;;;73.20;22.38;;;;;;;30.60;63.79;101086.72;5080635;27;65930;-37
2022/01/28 04:14:16;;;;;;;41.30;25.77;;;;;;;30.55;62.12;101072.16;5080613;27;70387;-38
2022/01/28 04:19:36;;;;;;;46.70;26.90;;;;;;;30.70;61.80;101079.00;5078754;27;69442;-37
2022/01/28 04:22:06;;;;;;;49.22;27.83;;;;;;;30.71;61.61;101072.53;5078549;27;66651;-37
2022/01/28 04:24:37;;;;;;;47.08;26.02;;;;;;;30.73;62.02;101070.44;5074687;27;70693;-37
2022/01/28 04:27:08;;;;;;;44.13;27.27;;;;;;;30.78;61.48;101068.94;5075557;27;67080;-37
2022/01/28 04:29:38;;;;;;;54.35;29.40;;;;;;;30.80;60.89;101059.59;5066594;27;69337;-38
2022/01/28 04:32:09;;;;;;;42.97;28.25;;;;;;;30.79;61.42;101052.50;5076397;27;65617;-37
2022/01/28 04:34:41;;;;;;;40.65;24.40;;;;;;;30.82;61.50;101052.09;5082083;27;69730;-37
2022/01/28 04:37:20;;;;;;;27.67;22.47;;;;;;;30.82;60.14;101046.69;5079132;27;66366;-37
2022/01/28 04:40:05;;;;;;;41.72;26.38;;;;;;;30.90;59.86;101043.72;5076946;28;70622;-37
2022/01/28 04:47:55;;;;;;;26.40;22.38;;;;;;;31.02;57.45;101041.16;5081355;27;66113;-37
2022/01/28 05:02:31;;;;;;;36.97;26.38;;;;;;;31.35;57.18;101019.25;5070929;27;44617;-38
2022/01/28 05:24:39;;;;;;;28.95;24.67;;;;;;;31.34;56.05;100957.09;5043565;28;65802;-38
2022/01/28 05:27:13;;;;;;;40.38;24.83;;;;;;;31.47;54.66;100965.16;5049319;28;70198;-42
2022/01/28 05:29:43;;;;;;;41.15;24.75;;;;;;;31.50;55.01;100962.00;5037797;28;66693;-37
2022/01/28 05:32:14;;;;;;;47.70;23.80;;;;;;;31.55;54.47;100947.78;5048868;28;70345;-37
2022/01/28 05:34:44;;;;;;;41.85;24.58;;;;;;;31.59;53.88;100952.56;5047246;28;65697;-38
2022/01/28 05:37:15;;;;;;;35.92;22.88;;;;;;;31.63;53.65;100946.69;5042701;28;69331;-38
2022/01/28 05:39:45;;;;;;;29.15;21.73;;;;;;;31.66;52.99;100948.94;5048336;28;66319;-38
2022/01/28 05:42:15;;;;;;;33.13;21.30;;;;;;;31.70;52.47;100939.28;5033817;28;69554;-38
2022/01/28 05:44:46;;;;;;;23.27;19.08;;;;;;;31.70;52.51;100928.44;5039523;28;66194;-39
2022/01/28 05:47:16;;;;;;;31.00;20.27;;;;;;;31.61;52.88;100915.16;5039479;28;69371;-39
2022/01/28 05:49:47;;;;;;;30.17;20.73;;;;;;;31.59;53.81;100925.44;5037524;28;65691;-40
2022/01/28 05:52:17;;;;;;;36.88;22.48;;;;;;;31.53;54.52;100910.03;5041100;28;69875;-37
2022/01/28 05:54:47;;;;;;;25.80;20.30;;;;;;;31.47;54.79;100907.41;5031054;28;66732;-38
2022/01/28 05:57:18;;;;;;;26.30;19.90;;;;;;;31.45;55.12;100904.91;5026503;28;69281;-38
2022/01/28 05:59:49;;;;;;;23.80;18.98;;;;;;;31.41;55.75;100902.88;5025702;28;67037;-39
2022/01/28 06:02:19;;;;;;;28.05;20.48;;;;;;;31.38;56.28;100904.97;5018557;28;69971;-38
2022/01/28 06:04:50;;;;;;;25.10;21.35;;;;;;;31.35;56.29;100899.16;5016865;28;65528;-38
2022/01/28 06:07:21;;;;;;;26.38;19.42;;;;;;;31.29;56.32;100889.22;5016510;28;69678;-38
2022/01/28 06:09:51;;;;;;;31.40;20.23;;;;;;;31.28;56.68;100882.13;5017820;28;65759;-39
2022/01/28 06:12:22;;;;;;;26.48;19.73;;;;;;;31.30;56.44;100882.72;5013009;28;70070;-39
2022/01/28 06:14:53;;;;;;;25.02;19.77;;;;;;;31.28;56.95;100874.81;5015315;28;65585;-38
2022/01/28 06:17:23;;;;;;;27.58;19.52;;;;;;;31.26;56.76;100876.94;5015924;28;69606;-39
2022/01/28 06:19:53;;;;;;;25.95;19.77;;;;;;;31.21;56.69;100863.22;5015554;28;65478;-39
2022/01/28 06:22:24;;;;;;;26.60;19.92;;;;;;;31.26;57.08;100862.53;5017028;28;70584;-39
2022/01/28 06:24:54;;;;;;;21.58;19.13;;;;;;;31.30;57.15;100871.88;5017820;28;66122;-38
2022/01/28 06:27:25;;;;;;;25.77;19.95;;;;;;;31.26;56.88;100865.25;5014451;28;70571;-38
2022/01/28 06:29:55;;;;;;;26.15;20.02;;;;;;;31.28;56.76;100855.84;5018830;28;66218;-38
2022/01/28 06:32:26;;;;;;;28.35;19.80;;;;;;;31.30;56.86;100848.31;5017071;28;69248;-39
2022/01/28 06:34:56;;;;;;;21.73;19.20;;;;;;;31.32;56.96;100856.25;5015034;28;65620;-37
2022/01/28 06:37:28;;;;;;;27.88;18.83;;;;;;;31.06;57.17;100809.34;5018156;28;69720;-40
2022/01/28 06:39:58;;;;;;;22.23;19.30;;;;;;;31.33;56.56;100841.63;5017386;28;66172;-38
2022/01/28 06:42:29;;;;;;;23.33;19.50;;;;;;;31.32;56.62;100835.38;5014967;28;69662;-39
2022/01/28 06:44:59;;;;;;;24.42;18.65;;;;;;;31.35;56.66;100836.81;5015818;28;65862;-38
2022/01/28 06:47:30;;;;;;;30.00;18.55;;;;;;;31.36;56.69;100835.78;5016119;28;69877;-38
2022/01/28 06:50:02;;;;;;;28.08;18.65;;;;;;;31.36;56.75;100836.59;5014060;28;66933;-39
2022/01/28 06:52:33;;;;;;;;;;;;;;;31.12;56.87;100824.75;5016684;28;70318;-39
2022/01/28 06:55:05;;;;;;;26.20;18.55;;;;;;;31.36;56.45;100819.53;5010394;28;66096;-38
2022/01/28 06:57:35;;;;;;;22.02;18.35;;;;;;;31.37;56.59;100827.44;5011359;28;69448;-38
2022/01/28 07:00:07;;;;;;;24.55;18.90;;;;;;;31.39;56.50;100813.66;5015409;28;65570;-38
2022/01/28 07:02:38;;;;;;;;;;;;;;;31.18;56.95;100812.19;5016143;28;70191;-38
2022/01/28 07:05:09;;;;;;;24.38;18.08;;;;;;;31.28;56.35;100784.56;5016685;28;66028;-38
2022/01/28 07:07:40;;;;;;;21.77;18.20;;;;;;;31.41;56.30;100805.31;5017768;28;70724;-38
2022/01/28 07:10:11;;;;;;;22.60;17.15;;;;;;;31.28;56.29;100773.72;5016650;28;65309;-40
2022/01/28 07:12:41;;;;;;;22.05;19.42;;;;;;;31.37;56.11;100783.22;5000588;28;69175;-38
2022/01/28 07:15:12;;;;;;;25.20;18.50;;;;;;;31.44;55.67;100778.56;5016923;28;66558;-38
2022/01/28 07:17:42;;;;;;;21.27;18.98;;;;;;;31.48;55.84;100779.78;5016002;28;69862;-38
2022/01/28 07:20:13;;;;;;;26.70;18.63;;;;;;;31.51;55.85;100782.03;5016106;28;65334;-38
2022/01/28 07:22:43;;;;;;;24.42;18.27;;;;;;;31.50;55.96;100755.97;4998268;28;69988;-38
2022/01/28 07:25:14;;;;;;;21.92;18.85;;;;;;;31.51;56.24;100764.91;5011913;28;66798;-39
2022/01/28 07:27:45;;;;;;;21.13;18.98;;;;;;;31.55;56.36;100769.66;5015027;28;71664;-38
2022/01/28 07:30:15;;;;;;;26.40;18.75;;;;;;;31.57;56.10;100762.13;5015074;28;66655;-37
2022/01/28 07:32:49;;;;;;;21.40;18.65;;;;;;;31.56;56.08;100760.47;5013996;28;69482;-38
2022/01/28 07:35:20;;;;;;;20.50;18.45;;;;;;;31.61;56.17;100762.50;4999267;28;65996;-38
2022/01/28 07:37:51;;;;;;;23.10;17.77;;;;;;;31.61;55.62;100760.63;5007588;28;70122;-37
2022/01/28 07:40:21;;;;;;;24.40;18.13;;;;;;;31.60;55.99;100753.53;5014553;28;65886;-37
2022/01/28 07:42:52;;;;;;;24.48;17.33;;;;;;;31.65;55.67;100754.72;5016603;28;69254;-37
2022/01/28 07:45:22;;;;;;;22.48;17.15;;;;;;;31.67;55.64;100744.50;5016328;28;66358;-38
2022/01/28 07:47:53;;;;;;;21.38;17.65;;;;;;;31.68;55.50;100746.13;5014254;28;70566;-38
2022/01/28 07:50:23;;;;;;;25.90;18.05;;;;;;;31.70;55.75;100744.03;5009561;28;65506;-37
2022/01/28 07:52:54;;;;;;;25.73;17.73;;;;;;;31.74;55.64;100742.53;5014912;28;69992;-38
2022/01/28 07:55:24;;;;;;;20.60;17.77;;;;;;;31.74;56.08;100745.25;5015183;28;65551;-39
2022/01/28 07:57:56;;;;;;;20.33;18.17;;;;;;;31.77;56.02;100742.06;5015396;28;69936;-39
2022/01/28 08:00:27;;;;;;;20.00;17.90;;;;;;;31.79;55.70;100742.69;5013430;28;65689;-39
2022/01/28 08:03:00;;;;;;;20.88;18.17;;;;;;;31.79;55.84;100738.06;5014097;28;69287;-39
2022/01/28 08:05:31;;;;;;;18.77;16.83;;;;;;;31.82;55.89;100737.59;5015705;28;65740;-38
2022/01/28 08:08:07;;;;;;;26.60;17.45;;;;;;;31.86;55.87;100723.59;5014482;28;69839;-38
2022/01/28 08:10:38;;;;;;;23.65;18.08;;;;;;;31.86;55.61;100727.13;5012046;28;66774;-38
2022/01/28 08:13:08;;;;;;;23.58;18.08;;;;;;;31.89;55.60;100725.84;5013331;28;69946;-38
2022/01/28 08:15:40;;;;;;;21.52;17.35;;;;;;;31.91;55.87;100726.44;5016036;28;65945;-39
2022/01/28 08:18:11;;;;;;;19.02;16.92;;;;;;;31.93;55.94;100727.88;5016263;28;69166;-38
2022/01/28 08:20:43;;;;;;;19.90;17.83;;;;;;;31.91;55.65;100712.88;5013652;28;66216;-37
2022/01/28 08:23:14;;;;;;;22.25;17.52;;;;;;;31.97;55.87;100711.97;5017030;28;70545;-38
2022/01/28 08:25:45;;;;;;;18.20;16.45;;;;;;;31.98;55.97;100714.47;5016681;28;66200;-38
2022/01/28 08:28:15;;;;;;;28.50;18.52;;;;;;;32.01;55.71;100707.72;5013987;28;69876;-38
2022/01/28 08:30:46;;;;;;;20.50;17.90;;;;;;;32.02;55.98;100707.50;5015442;28;65921;-38
2022/01/28 08:33:16;;;;;;;21.48;17.60;;;;;;;32.06;55.78;100699.72;5015722;28;69755;-38
2022/01/28 08:35:52;;;;;;;25.85;17.55;;;;;;;31.95;55.73;100690.47;5014577;28;66323;-38
2022/01/28 08:38:27;;;;;;;53.40;19.90;;;;;;;32.11;55.75;100701.75;5015466;28;69670;-38
2022/01/28 08:40:59;;;;;;;52.00;18.85;;;;;;;32.12;55.75;100703.38;5015052;28;66241;-37
2022/01/28 08:43:30;;;;;;;57.40;19.42;;;;;;;32.16;55.52;100696.44;5010012;28;70357;-37
2022/01/28 08:46:00;;;;;;;34.63;19.30;;;;;;;32.21;55.66;100699.28;5016398;28;65580;-38
2022/01/28 08:48:31;;;;;;;45.08;18.85;;;;;;;32.25;55.04;100692.31;5013549;28;70180;-38
2022/01/28 08:51:03;;;;;;;56.15;19.08;;;;;;;32.30;54.96;100695.16;5013914;28;65765;-38
2022/01/28 08:53:36;;;;;;;41.03;19.13;;;;;;;32.33;55.34;100693.88;5015988;28;69019;-38
2022/01/28 08:56:06;;;;;;;36.38;19.38;;;;;;;32.31;54.97;100688.66;5014810;28;66262;-38
2022/01/28 08:58:37;;;;;;;21.20;18.08;;;;;;;32.35;55.19;100692.56;4997343;28;68856;-37
2022/01/28 09:01:09;;;;;;;37.05;18.75;;;;;;;32.45;55.22;100695.50;5014618;28;66417;-37
2022/01/28 09:03:39;;;;;;;;;;;;;;;32.33;55.42;100700.13;5013666;28;70074;-36
2022/01/28 09:06:10;;;;;;;21.08;17.13;;;;;;;32.59;54.82;100687.16;5015503;28;67040;-37
2022/01/28 09:08:41;;;;;;;32.83;18.90;;;;;;;32.66;55.04;100696.03;5015228;28;71624;-37
2022/01/28 09:13:55;;;;;;;;;;;;;;;32.59;55.23;100700.75;5011755;28;69913;-37
2022/01/28 09:16:25;;;;;;;31.65;17.73;;;;;;;32.81;54.87;100690.94;5010356;28;65274;-37
2022/01/28 09:18:56;;;;;;;39.80;19.60;;;;;;;32.85;54.93;100697.56;5015309;28;70093;-37
2022/01/28 09:21:26;;;;;;;33.05;19.10;;;;;;;32.87;54.58;100700.00;5009646;28;66506;-37
2022/01/28 09:23:56;;;;;;;26.83;19.00;;;;;;;32.92;54.81;100698.22;5013377;28;69514;-38
2022/01/28 09:26:28;;;;;;;29.40;19.92;;;;;;;32.96;54.83;100708.63;5014250;28;66678;-38
2022/01/28 09:28:59;;;;;;;30.25;19.75;;;;;;;32.98;54.71;100706.50;5016306;28;70052;-38
2022/01/28 09:31:34;;;;;;;27.60;18.70;;;;;;;32.99;54.58;100706.28;5010551;28;66171;-37
2022/01/28 09:34:05;;;;;;;30.77;18.90;;;;;;;33.04;54.66;100711.00;5014443;28;70006;-38
2022/01/28 09:36:35;;;;;;;40.00;19.58;;;;;;;33.02;54.75;100703.09;5013062;28;64907;-38
2022/01/28 09:39:07;;;;;;;30.70;19.67;;;;;;;33.07;54.58;100707.81;4999340;28;70615;-39
2022/01/28 09:41:38;;;;;;;49.55;20.65;;;;;;;33.08;54.38;100706.75;5018899;28;66380;-38
2022/01/28 09:44:11;;;;;;;30.30;18.73;;;;;;;33.06;54.63;100706.16;5015300;28;70600;-38
2022/01/28 09:46:42;;;;;;;30.33;19.58;;;;;;;33.05;54.20;100708.06;5017538;28;66439;-38
2022/01/28 09:49:13;;;;;;;31.55;19.85;;;;;;;33.09;54.31;100719.28;5011670;28;70065;-37
2022/01/28 09:51:43;;;;;;;27.42;19.35;;;;;;;33.10;54.13;100712.78;5014564;28;66054;-37
2022/01/28 09:54:14;;;;;;;29.98;19.20;;;;;;;33.11;54.07;100728.03;5012072;28;70027;-39
2022/01/28 09:56:44;;;;;;;30.63;18.23;;;;;;;33.09;54.19;100719.28;5011924;28;66905;-38
2022/01/28 09:59:15;;;;;;;31.50;19.52;;;;;;;33.13;53.93;100725.91;5017681;28;70289;-38
2022/01/28 10:01:53;;;;;;;24.67;19.08;;;;;;;32.99;53.64;100702.72;5017035;28;66244;-38
2022/01/28 10:04:24;;;;;;;23.33;19.50;;;;;;;33.13;53.90;100728.63;5018985;28;69649;-37
2022/01/28 10:06:56;;;;;;;24.40;19.20;;;;;;;33.12;53.41;100726.94;5019312;28;66639;-38
2022/01/28 10:09:27;;;;;;;24.05;18.23;;;;;;;33.13;53.47;100734.06;5017906;28;69661;-38
2022/01/28 10:12:23;;;;;;;28.25;18.60;;;;;;;33.09;53.19;100727.41;5012837;28;65196;-38
2022/01/28 10:15:00;;;;;;;26.63;18.10;;;;;;;33.14;53.29;100738.41;5001423;28;69449;-38
2022/01/28 10:17:53;;;;;;;26.98;18.50;;;;;;;33.08;53.58;100744.81;5012737;28;66642;-38
2022/01/28 10:20:25;;;;;;;28.33;18.38;;;;;;;33.08;53.77;100734.75;5010098;28;69988;-38
2022/01/28 10:22:58;;;;;;;23.30;17.80;;;;;;;33.04;53.64;100735.47;5013366;28;66403;-37
2022/01/28 10:25:36;;;;;;;40.63;18.70;;;;;;;32.92;54.27;100713.72;4998489;28;69010;-39
2022/01/28 10:28:09;;;;;;;53.40;20.85;;;;;;;32.96;54.24;100724.91;5016554;28;66034;-38
2022/01/28 10:30:44;;;;;;;31.17;18.92;;;;;;;33.08;54.95;100755.69;5016289;28;69065;-42
2022/01/28 10:33:21;;;;;;;36.08;19.50;;;;;;;33.08;55.14;100751.06;4997425;28;65555;-39
2022/01/28 10:35:56;;;;;;;46.47;20.95;;;;;;;32.96;55.55;100727.63;5012550;28;70484;-38
2022/01/28 10:38:35;;;;;;;29.00;19.48;;;;;;;33.12;55.20;100756.84;5018626;28;65343;-39
2022/01/28 10:41:17;;;;;;;39.28;20.10;;;;;;;33.07;55.31;100757.56;5018272;28;71324;-40
2022/01/28 10:43:51;;;;;;;31.63;19.63;;;;;;;33.10;55.83;100761.72;5017787;28;65724;-41
2022/01/28 10:46:25;;;;;;;29.17;19.77;;;;;;;32.92;55.80;100733.56;5017829;28;69606;-38
2022/01/28 10:48:58;;;;;;;28.13;19.60;;;;;;;33.10;55.72;100765.25;5001933;28;66454;-38
2022/01/28 10:51:45;;;;;;;42.35;20.65;;;;;;;33.06;56.14;100760.50;5000708;28;69554;-38
2022/01/28 10:54:20;;;;;;;31.20;19.75;;;;;;;33.04;56.28;100759.91;5012562;28;66032;-38
2022/01/28 10:57:01;;;;;;;29.65;19.02;;;;;;;32.87;56.25;100738.06;5015423;28;70519;-37
2022/01/28 10:59:38;;;;;;;32.50;20.48;;;;;;;33.02;56.34;100783.81;5023843;28;64571;-37
2022/01/28 11:02:08;;;;;;;27.60;19.55;;;;;;;33.02;56.10;100768.31;5013731;28;69052;-39
2022/01/28 11:04:42;;;;;;;30.88;19.23;;;;;;;32.86;56.05;100745.38;5012164;28;67640;-39
2022/01/28 11:07:12;;;;;;;24.70;19.42;;;;;;;32.99;56.01;100781.50;5015158;28;70285;-39
2022/01/28 11:09:43;;;;;;;34.65;19.65;;;;;;;32.98;56.09;100788.00;4995909;28;65306;-38
2022/01/28 11:12:14;;;;;;;28.92;18.73;;;;;;;32.94;56.02;100787.66;5014363;28;70552;-37
2022/01/28 11:14:44;;;;;;;22.58;18.42;;;;;;;32.91;55.96;100786.25;5006432;28;65491;-38
2022/01/28 11:17:18;;;;;;;28.05;19.42;;;;;;;32.91;56.04;100796.31;5014639;28;70244;-38
2022/01/28 11:19:52;;;;;;;29.00;21.27;;;;;;;32.89;55.89;100796.53;5013553;28;65023;-38
2022/01/28 11:22:39;;;;;;;26.50;20.67;;;;;;;32.77;55.85;100782.13;5031094;28;68818;-37
2022/01/28 11:25:27;;;;;;;27.88;20.42;;;;;;;32.76;56.69;100796.75;5010284;28;66971;-38
2022/01/28 11:28:06;;;;;;;28.48;21.23;;;;;;;32.65;57.40;100800.28;5009029;28;70392;-39
2022/01/28 11:30:44;;;;;;;39.80;21.50;;;;;;;32.58;57.52;100805.00;5014110;28;66254;-38
2022/01/28 11:33:15;;;;;;;33.65;20.95;;;;;;;32.43;58.29;100800.81;5010554;28;69543;-38
2022/01/28 11:35:52;;;;;;;29.92;21.77;;;;;;;32.41;58.35;100812.97;4994572;28;65762;-38
2022/01/28 11:38:26;;;;;;;29.65;21.13;;;;;;;32.36;59.14;100819.09;5010589;28;68827;-38
2022/01/28 11:41:00;;;;;;;31.20;20.85;;;;;;;32.31;59.30;100821.66;5007933;28;66381;-37
2022/01/28 11:43:32;;;;;;;31.80;21.00;;;;;;;32.23;58.97;100819.28;5010641;28;70376;-39
2022/01/28 11:46:11;;;;;;;;;;;;;;;31.95;60.14;100818.00;5013817;28;66367;-38
2022/01/28 11:48:54;;;;;;;24.08;20.63;;;;;;;32.10;59.95;100822.22;5010266;28;69474;-38
2022/01/28 11:51:33;;;;;;;27.08;21.65;;;;;;;32.12;60.44;100828.22;5016620;28;65424;-37
2022/01/28 11:54:06;;;;;;;28.45;21.08;;;;;;;31.95;60.19;100800.88;5014235;28;69841;-38
2022/01/28 11:57:03;;;;;;;28.88;22.83;;;;;;;32.08;60.40;100827.03;5015423;28;65497;-39
2022/01/28 11:59:33;;;;;;;38.38;22.02;;;;;;;32.05;60.97;100834.56;5014589;28;70372;-38
2022/01/28 12:02:10;;;;;;;41.33;21.55;;;;;;;32.09;60.80;100834.09;5008590;28;65518;-39
2022/01/28 12:04:43;;;;;;;29.75;22.90;;;;;;;32.09;60.91;100829.50;4999960;28;69658;-37
2022/01/28 12:07:18;;;;;;;33.38;22.98;;;;;;;32.09;61.43;100843.06;5012422;28;65608;-38
2022/01/28 12:09:53;;;;;;;32.40;22.65;;;;;;;32.10;61.25;100849.34;5010104;28;70369;-38
2022/01/28 12:12:47;;;;;;;31.77;22.98;;;;;;;32.05;62.50;100856.25;5013289;28;65511;-39
2022/01/28 12:15:19;;;;;;;30.25;21.58;;;;;;;32.09;61.61;100853.09;5005510;28;69484;-38
2022/01/28 12:17:51;;;;;;;38.25;22.70;;;;;;;32.09;61.43;100862.06;5005506;28;66313;-39
2022/01/28 12:20:47;;;;;;;31.97;22.57;;;;;;;32.07;61.91;100858.75;5009814;28;69686;-38
2022/01/28 12:23:18;;;;;;;31.50;22.17;;;;;;;32.07;61.32;100866.06;5013668;28;66255;-38
2022/01/28 12:25:50;;;;;;;34.05;22.48;;;;;;;32.07;61.50;100863.34;5008754;28;69930;-40
2022/01/28 12:28:46;;;;;;;;;;;;;;;31.84;62.26;100870.28;5011364;28;65535;-38
2022/01/28 12:31:34;;;;;;;28.65;21.48;;;;;;;31.96;62.34;100863.06;5006819;28;70168;-38
2022/01/28 12:34:08;;;;;;;33.72;22.30;;;;;;;31.97;61.80;100859.28;5009786;28;65424;-38
2022/01/28 12:36:39;;;;;;;39.38;24.55;;;;;;;32.00;61.61;100871.56;5017459;28;68788;-39
2022/01/28 12:41:54;;;;;;;36.70;24.13;;;;;;;31.94;62.60;100869.78;5009594;28;70124;-39
2022/01/28 12:44:26;;;;;;;35.30;24.17;;;;;;;31.96;62.41;100873.94;5006999;28;65860;-38
2022/01/28 12:47:05;;;;;;;33.17;23.60;;;;;;;31.97;62.40;100882.88;4988764;28;69648;-38
2022/01/28 12:49:38;;;;;;;41.70;23.77;;;;;;;31.81;62.69;100859.88;4988280;28;65515;-38
2022/01/28 12:52:10;;;;;;;39.72;23.83;;;;;;;31.95;62.72;100893.13;5019135;28;71567;-38
2022/01/28 12:54:43;;;;;;;38.43;22.93;;;;;;;31.93;62.77;100892.53;5008861;28;65594;-38
2022/01/28 12:57:20;;;;;;;30.17;22.92;;;;;;;31.89;63.22;100894.84;5008515;28;69942;-38
2022/01/28 12:59:51;;;;;;;38.60;22.92;;;;;;;31.90;63.23;100892.94;5007560;28;65852;-40
2022/01/28 13:02:34;;;;;;;35.80;23.90;;;;;;;31.83;63.69;100896.56;4989547;28;70185;-39
2022/01/28 13:10:33;;;;;;;37.78;24.40;;;;;;;31.72;63.64;100885.66;5008907;28;66580;-38
2022/01/28 13:13:06;;;;;;;32.67;23.50;;;;;;;31.82;63.79;100907.66;5025010;28;70904;-38
2022/01/28 13:15:38;;;;;;;29.23;23.48;;;;;;;31.81;63.59;100914.13;5008114;28;65431;-38
2022/01/28 13:18:09;;;;;;;33.20;23.77;;;;;;;31.75;63.44;100907.72;4988411;28;68415;-38
2022/01/28 13:20:42;;;;;;;35.78;23.90;;;;;;;31.76;64.00;100928.38;5012621;28;66776;-38